Terminal Aerodrome Forecast
Issued by NWS Lake Charles, LA

Home | Current Version | Previous Version | Text Only | Print | Product List | Glossary On
Versions: 1 2 3 4 5 6 7 8 9 10 11 12 13 14 15 16 17 18 19 20 21 22 23 24 25 26 27 28
274
FTUS44 KLCH 221617 AAB
TAFARA
TAF AMD
KARA 221617Z 2216/2312 01007KT P6SM BKN020
      TEMPO 2216/2218 SCT020
     FM221800 35008KT P6SM SCT050
     FM230200 VRB03KT P6SM SCT250=

USA.gov is the U.S. government's official web portal to all federal, state and local government web resources and services.